Kenai Municipal Airport
PAEN : rendu visible

Aérodrome :











RETROUVEZ-NOUS SUR...

 
LOGIN :

S'inscrire | Disclaimer

   EN    FR    IT 

 









Légende :    VFR   VFR Marginal   IFR   IFR Intensif   IFR Très Intensif
Visi : 
Plafond : 
>= 8 km
>= 3000ft
5 à 8 km
1000 à 3000 ft
1500m à 5 km
500 à 1000 ft
800 à 1500m
200 à 500 ft
< 800m
< 200 ft
Symboles :   Orages  Brouillard  Fortes neiges  Fortes précipitations  Vent > 20 kt






- Altitude de l'aérodrome : 99 ft
- Code IATA : ENA


PAEN - Kenai Municipal

DERNIER METAR :
  • 121024Z AUTO 20009KT 2 1/2SM +RA BR FEW005 BKN037 OVC080 12/11 A2978 RMK AO2 RAB0958 P0014 T01220111 TSNO

METARs EXPIRÉS :
  • 120953Z AUTO 21013KT 9SM SCT005 BKN055 OVC070 12/11 A2978 RMK AO2 RAB16E50 SLP086 P0002 T01220106 TSNO
  • 120925Z AUTO 21010KT 5SM -RA BR BKN005 OVC035 12/11 A2978 RMK AO2 RAB16 P0001 T01220111 TSNO
  • 120903Z AUTO 20011KT 10SM FEW009 OVC036 13/11 A2977 RMK AO2 T01280106 TSNO
  • 120853Z AUTO 20010KT 10SM FEW010 OVC036 13/11 A2978 RMK AO2 SLP084 T01280106 401670078 51011 TSNO
  • 120753Z AUTO 17009KT 10SM SCT048 BKN060 BKN080 13/11 A2977 RMK AO2 SLP081 T01330106 TSNO

TAF PAEN
Valide du 12 à 06h jusqu'au 13 à 06h UTC


120544Z 1206/1306 19008KT P6SM VCSH SCT050 BKN070
FM121000 18008KT P6SM VCFG OVC015
FM121900 20010KT P6SM SCT020 BKN040
FIR PAZA / Amérique du Nord



MET'MAP, la Météo Aéronautique d'un coup d'oeil ! - Copyright ORBIFLY Décembre 2007 - Disclaimer

ORBIFLY MET'MAP TEAM :

Programmation & Développement : Alexandra Zaïnal
Sur une idée originale de : Baudouin d'Aumeries
Assistance à la programmation : Marc-Olivier Méhu
Soutien technique & logistique : Manuel Goepfert

Contact : metmap@orbifly.com




SOURCES & CREDITS :

   NOAA       Earth
Advisory